Time;durP1;ratioP1;P1;durP2;ratioP2;P2;SDS_P1;SDS_P2;PMS_P1;PMS_P2;Temp;Humidity;BMP_temperature;BMP_pressure;BME280_temperature;BME280_humidity;BME280_pressure;Samples;Min_cycle;Max_cycle;Signal;HPM_P1;HPM_P2
2022/09/09 00:02:27;;;;;;;8.15;4.35;;;15.10;99.90;;;;;;5010130;28;20394;-48
2022/09/09 00:05:01;;;;;;;8.15;4.90;;;15.10;99.90;;;;;;5019382;28;20157;-49
2022/09/09 00:07:35;;;;;;;13.18;5.68;;;15.10;99.90;;;;;;4995056;28;20050;-47
2022/09/09 00:10:07;;;;;;;8.50;5.05;;;15.00;99.90;;;;;;4995151;28;20053;-46
2022/09/09 00:12:37;;;;;;;6.82;4.57;;;15.00;99.90;;;;;;5010858;28;20500;-48
2022/09/09 00:15:06;;;;;;;8.27;4.45;;;15.00;99.90;;;;;;5019835;28;20141;-44
2022/09/09 00:17:35;;;;;;;8.80;5.18;;;15.00;99.90;;;;;;4992602;28;20137;-49
2022/09/09 00:20:06;;;;;;;13.40;5.43;;;15.00;99.90;;;;;;5012120;28;20123;-48
2022/09/09 00:22:33;;;;;;;9.13;4.45;;;14.90;99.90;;;;;;5011314;28;20108;-44
2022/09/09 00:25:04;;;;;;;7.38;4.60;;;14.90;99.90;;;;;;5014219;28;20453;-45
2022/09/09 00:27:33;;;;;;;7.38;4.93;;;14.90;99.90;;;;;;5015476;28;20057;-45
2022/09/09 00:30:12;;;;;;;9.80;5.85;;;14.90;99.90;;;;;;5015418;28;20088;-49
2022/09/09 00:32:39;;;;;;;9.00;5.57;;;14.90;99.90;;;;;;4998607;28;20089;-46
2022/09/09 00:35:16;;;;;;;10.05;5.18;;;14.90;99.90;;;;;;5003057;28;20096;-49
2022/09/09 00:37:43;;;;;;;7.22;4.18;;;14.90;99.90;;;;;;4998429;28;20057;-47
2022/09/09 00:40:17;;;;;;;13.85;6.30;;;14.80;99.90;;;;;;5015626;28;20128;-47
2022/09/09 00:42:45;;;;;;;9.45;5.00;;;14.80;99.90;;;;;;5026563;28;20136;-48
2022/09/09 00:45:19;;;;;;;15.13;7.20;;;14.80;99.90;;;;;;5010948;28;20059;-46
2022/09/09 00:47:47;;;;;;;14.07;6.15;;;14.80;99.90;;;;;;4997140;28;20050;-40
2022/09/09 00:50:39;;;;;;;9.50;4.40;;;14.80;99.90;;;;;;4989332;28;20493;-49
2022/09/09 00:53:17;;;;;;;10.90;5.80;;;14.80;99.90;;;;;;5013326;28;20054;-42
2022/09/09 00:55:47;;;;;;;8.68;6.57;;;14.70;99.90;;;;;;5004514;28;20120;-47
2022/09/09 00:58:14;;;;;;;11.52;5.80;;;14.80;99.90;;;;;;5012622;28;20057;-49
2022/09/09 01:00:43;;;;;;;6.03;4.70;;;14.70;99.90;;;;;;5018771;28;20054;-49
2022/09/09 01:03:20;;;;;;;12.98;5.85;;;14.70;99.90;;;;;;5007236;28;20056;-47
2022/09/09 01:05:51;;;;;;;11.15;5.88;;;14.80;99.90;;;;;;5014174;28;20046;-50
2022/09/09 01:08:29;;;;;;;12.93;7.30;;;14.70;99.90;;;;;;4997142;28;20081;-44
2022/09/09 01:10:57;;;;;;;15.00;7.57;;;14.70;99.90;;;;;;5000327;28;20140;-40
2022/09/09 01:13:26;;;;;;;13.32;6.45;;;14.70;99.90;;;;;;5013116;28;20042;-45
2022/09/09 01:15:54;;;;;;;11.38;7.60;;;14.80;99.90;;;;;;4994539;28;20080;-50
2022/09/09 01:18:22;;;;;;;12.23;7.20;;;14.70;99.90;;;;;;5018642;28;20430;-49
2022/09/09 01:20:56;;;;;;;11.95;7.85;;;14.70;99.90;;;;;;5012957;28;20050;-47
2022/09/09 01:23:36;;;;;;;14.68;7.32;;;14.70;99.90;;;;;;4998299;28;20050;-51
2022/09/09 01:26:19;;;;;;;11.82;7.30;;;14.70;99.90;;;;;;5015093;28;20042;-45
2022/09/09 01:28:46;;;;;;;16.55;7.47;;;14.70;99.90;;;;;;5015076;28;20141;-41
2022/09/09 01:31:15;;;;;;;14.68;7.25;;;14.70;99.90;;;;;;5013282;28;20069;-48
2022/09/09 01:33:42;;;;;;;14.88;7.68;;;14.70;99.90;;;;;;5014296;28;20137;-47
2022/09/09 01:36:10;;;;;;;11.18;7.22;;;14.70;99.90;;;;;;5012528;28;20133;-49
2022/09/09 01:38:37;;;;;;;17.85;8.57;;;14.70;99.90;;;;;;5014235;28;20125;-60
2022/09/09 01:41:03;;;;;;;14.15;7.80;;;14.80;99.90;;;;;;5017769;28;20069;-60
2022/09/09 01:43:32;;;;;;;11.98;8.07;;;14.80;99.90;;;;;;5013108;28;20132;-55
2022/09/09 01:46:00;;;;;;;13.52;8.50;;;14.80;99.90;;;;;;5013763;28;20050;-57
2022/09/09 01:48:27;;;;;;;12.80;7.18;;;14.80;99.90;;;;;;5013876;28;20097;-58
2022/09/09 01:51:04;;;;;;;15.10;7.47;;;14.80;99.90;;;;;;5001975;28;20054;-57
2022/09/09 01:53:30;;;;;;;12.93;7.05;;;14.80;99.90;;;;;;5010275;28;20069;-56
2022/09/09 01:56:03;;;;;;;13.02;6.53;;;14.80;99.90;;;;;;4994215;28;20401;-57
2022/09/09 01:58:38;;;;;;;12.23;6.30;;;14.90;99.90;;;;;;5012993;28;20474;-49
2022/09/09 02:01:09;;;;;;;13.75;6.38;;;14.90;99.90;;;;;;4998348;28;20046;-53
2022/09/09 02:03:36;;;;;;;13.80;7.18;;;14.90;99.90;;;;;;4998491;28;20046;-58
2022/09/09 02:06:08;;;;;;;12.80;6.05;;;14.90;99.90;;;;;;4995905;28;20057;-61
2022/09/09 02:08:39;;;;;;;12.02;6.10;;;14.90;99.90;;;;;;5012820;28;20084;-59
2022/09/09 02:11:07;;;;;;;19.55;7.28;;;15.00;99.90;;;;;;5012710;28;20041;-54
2022/09/09 02:13:37;;;;;;;11.68;6.03;;;15.00;99.90;;;;;;5034279;28;20133;-58
2022/09/09 02:16:05;;;;;;;12.88;6.35;;;15.00;99.90;;;;;;5005096;28;20084;-59
2022/09/09 02:18:35;;;;;;;12.18;7.03;;;15.00;99.90;;;;;;5004788;28;20046;-57
2022/09/09 02:21:02;;;;;;;11.50;6.50;;;15.10;99.90;;;;;;5013045;28;20096;-59
2022/09/09 02:23:29;;;;;;;14.55;6.88;;;15.00;99.90;;;;;;5016433;28;20089;-56
2022/09/09 02:25:56;;;;;;;12.38;7.32;;;15.00;99.90;;;;;;5000823;28;20111;-56
2022/09/09 02:28:23;;;;;;;10.25;6.88;;;15.10;99.90;;;;;;5013272;28;20132;-58
2022/09/09 02:30:54;;;;;;;13.73;7.35;;;15.00;99.90;;;;;;4995754;28;20046;-56
2022/09/09 02:33:22;;;;;;;9.48;6.43;;;15.10;99.90;;;;;;5013461;28;20046;-58
2022/09/09 02:35:49;;;;;;;13.32;7.63;;;15.00;99.90;;;;;;5011474;28;20137;-56
2022/09/09 02:38:16;;;;;;;12.13;6.15;;;15.10;99.90;;;;;;5011844;28;20532;-58
2022/09/09 02:40:42;;;;;;;14.88;7.45;;;15.10;99.90;;;;;;5013292;28;20513;-58
2022/09/09 02:43:09;;;;;;;9.27;5.88;;;15.10;99.90;;;;;;5013595;28;20050;-58
2022/09/09 02:45:40;;;;;;;11.23;6.20;;;15.10;99.90;;;;;;4995502;28;20135;-54
2022/09/09 02:48:11;;;;;;;10.68;6.72;;;15.10;99.90;;;;;;5011184;28;20465;-57
2022/09/09 02:50:42;;;;;;;12.48;5.50;;;15.20;99.90;;;;;;5002239;28;20145;-56
2022/09/09 02:53:11;;;;;;;11.40;6.38;;;15.20;99.90;;;;;;5012682;28;20046;-58
2022/09/09 02:55:39;;;;;;;16.17;6.05;;;15.20;99.90;;;;;;4994710;28;20137;-56
2022/09/09 02:58:08;;;;;;;9.55;6.10;;;15.20;99.90;;;;;;5012601;28;20100;-59
2022/09/09 03:00:35;;;;;;;8.10;5.85;;;15.20;99.90;;;;;;5003111;28;20103;-58
2022/09/09 03:03:02;;;;;;;11.48;6.10;;;15.20;99.90;;;;;;5011757;28;20045;-53
2022/09/09 03:05:30;;;;;;;12.82;5.97;;;15.20;99.90;;;;;;4994945;28;20062;-56
2022/09/09 03:07:57;;;;;;;9.93;5.32;;;15.20;99.90;;;;;;5011971;28;20073;-55
2022/09/09 03:10:24;;;;;;;8.57;5.22;;;15.20;99.90;;;;;;5018897;28;20458;-53
2022/09/09 03:12:51;;;;;;;9.65;5.82;;;15.20;99.90;;;;;;5012273;28;20140;-55
2022/09/09 03:15:18;;;;;;;8.93;5.60;;;15.20;99.90;;;;;;4995972;28;20060;-55
2022/09/09 03:17:44;;;;;;;10.07;5.72;;;15.20;99.90;;;;;;4991888;28;20185;-55
2022/09/09 03:20:12;;;;;;;9.32;5.30;;;15.20;99.90;;;;;;5014461;28;20045;-46
2022/09/09 03:22:40;;;;;;;6.63;5.18;;;15.20;99.90;;;;;;4994120;28;20371;-52
2022/09/09 03:25:07;;;;;;;8.90;5.57;;;15.20;99.90;;;;;;5012729;28;20088;-51
2022/09/09 03:27:35;;;;;;;6.85;5.35;;;15.20;99.90;;;;;;4994835;28;20383;-55
2022/09/09 03:30:03;;;;;;;7.57;5.10;;;15.20;99.90;;;;;;5010469;28;20049;-53
2022/09/09 03:32:31;;;;;;;11.77;5.35;;;15.20;99.90;;;;;;5011492;28;20104;-54
2022/09/09 03:34:58;;;;;;;9.43;5.20;;;15.20;99.90;;;;;;5012285;28;20101;-52
2022/09/09 03:37:24;;;;;;;8.75;5.45;;;15.20;99.90;;;;;;5011448;28;20489;-54
2022/09/09 03:39:54;;;;;;;6.75;5.28;;;15.20;99.90;;;;;;5012046;28;20400;-53
2022/09/09 03:42:20;;;;;;;14.73;6.53;;;15.20;99.90;;;;;;5013031;28;20505;-54
2022/09/09 03:44:49;;;;;;;7.38;5.40;;;15.20;99.90;;;;;;4994579;28;20216;-53
2022/09/09 03:47:18;;;;;;;10.30;6.22;;;15.20;99.90;;;;;;5009777;28;20330;-53
2022/09/09 03:49:45;;;;;;;9.27;6.15;;;15.20;99.90;;;;;;4992489;28;20054;-50
2022/09/09 03:52:11;;;;;;;10.10;6.30;;;15.20;99.90;;;;;;5019494;28;20425;-52
2022/09/09 03:54:39;;;;;;;8.90;6.63;;;15.20;99.90;;;;;;5002746;28;20100;-50
2022/09/09 03:57:07;;;;;;;12.95;7.05;;;15.20;99.90;;;;;;5012428;28;20053;-52
2022/09/09 03:59:34;;;;;;;10.27;7.28;;;15.20;99.90;;;;;;4994884;28;20085;-51
2022/09/09 04:02:02;;;;;;;9.82;7.03;;;15.20;99.90;;;;;;5015834;28;20613;-54
2022/09/09 04:04:28;;;;;;;16.23;7.90;;;15.20;99.90;;;;;;5016093;28;20050;-53
2022/09/09 04:06:55;;;;;;;11.38;7.13;;;15.20;99.90;;;;;;5015727;28;20081;-52
2022/09/09 04:09:22;;;;;;;11.88;6.15;;;15.20;99.90;;;;;;5019986;28;20077;-55
2022/09/09 04:11:50;;;;;;;11.45;6.82;;;15.20;99.90;;;;;;5014481;28;20046;-54
2022/09/09 04:14:18;;;;;;;10.02;6.93;;;15.10;99.90;;;;;;5014090;28;20050;-56
2022/09/09 04:16:45;;;;;;;9.98;6.90;;;15.20;99.90;;;;;;5015023;28;20109;-52
2022/09/09 04:19:13;;;;;;;10.23;7.63;;;15.20;99.90;;;;;;5001602;28;20129;-53
2022/09/09 04:21:40;;;;;;;13.02;8.10;;;15.20;99.90;;;;;;5014842;28;20054;-50
2022/09/09 04:24:07;;;;;;;11.40;8.30;;;15.20;99.90;;;;;;5015544;28;20050;-51
2022/09/09 04:26:34;;;;;;;14.02;8.02;;;15.10;99.90;;;;;;5014584;28;20096;-53
2022/09/09 04:29:01;;;;;;;13.32;9.13;;;15.10;99.90;;;;;;4992760;28;20069;-53
2022/09/09 04:31:29;;;;;;;10.93;8.55;;;15.10;99.90;;;;;;5015773;28;20089;-53
2022/09/09 04:33:56;;;;;;;14.05;8.23;;;15.10;99.90;;;;;;4997032;28;20501;-53
2022/09/09 04:36:23;;;;;;;15.27;10.07;;;15.10;99.90;;;;;;5015957;28;20081;-54
2022/09/09 04:38:50;;;;;;;16.50;10.45;;;15.10;99.90;;;;;;5016871;28;20485;-48
2022/09/09 04:41:17;;;;;;;14.80;9.85;;;15.10;99.90;;;;;;4997978;28;20473;-51
2022/09/09 04:43:44;;;;;;;17.80;10.45;;;15.00;99.90;;;;;;5015686;28;20046;-53
2022/09/09 04:46:11;;;;;;;13.27;10.02;;;15.00;99.90;;;;;;5015078;28;20081;-51
2022/09/09 04:48:39;;;;;;;13.10;9.65;;;15.00;99.90;;;;;;5015530;28;20084;-53
2022/09/09 04:51:07;;;;;;;13.57;9.82;;;15.00;99.90;;;;;;5014304;28;20387;-51
2022/09/09 04:53:34;;;;;;;15.90;10.57;;;15.00;99.90;;;;;;5013513;28;20111;-50
2022/09/09 04:56:05;;;;;;;14.30;9.65;;;15.00;99.90;;;;;;5015761;28;20096;-49
2022/09/09 04:58:32;;;;;;;14.18;10.25;;;14.90;99.90;;;;;;4995558;28;20399;-52
2022/09/09 05:01:05;;;;;;;12.27;8.43;;;14.90;99.90;;;;;;5013603;28;20104;-50
2022/09/09 05:03:31;;;;;;;15.85;10.10;;;14.90;99.90;;;;;;4996222;28;20054;-48
2022/09/09 05:06:05;;;;;;;12.77;8.77;;;14.90;99.90;;;;;;4996407;28;20146;-52
2022/09/09 05:08:32;;;;;;;13.85;9.25;;;14.90;99.90;;;;;;4997476;28;20068;-47
2022/09/09 05:11:00;;;;;;;16.38;9.52;;;14.90;99.90;;;;;;4996035;28;20050;-51
2022/09/09 05:13:27;;;;;;;12.27;9.35;;;14.90;99.90;;;;;;4997726;28;20049;-46
2022/09/09 05:15:54;;;;;;;15.45;10.25;;;14.90;99.90;;;;;;4996033;28;20073;-48
2022/09/09 05:18:22;;;;;;;13.85;9.68;;;14.80;99.90;;;;;;5008228;28;20058;-45
2022/09/09 05:20:48;;;;;;;15.13;9.35;;;14.80;99.90;;;;;;4992611;28;20136;-45
2022/09/09 05:23:17;;;;;;;17.40;9.50;;;14.80;99.90;;;;;;5010716;28;20104;-49
2022/09/09 05:25:43;;;;;;;11.68;8.82;;;14.80;99.90;;;;;;5018025;28;20092;-47
2022/09/09 05:28:11;;;;;;;14.20;9.35;;;14.70;99.90;;;;;;5000780;28;20082;-43
2022/09/09 05:30:38;;;;;;;15.65;10.00;;;14.70;99.90;;;;;;5013593;28;20041;-49
2022/09/09 05:33:06;;;;;;;14.52;9.93;;;14.80;99.90;;;;;;5010199;28;20472;-47
2022/09/09 05:35:33;;;;;;;13.02;8.85;;;14.70;99.90;;;;;;5013385;28;20052;-49
2022/09/09 05:38:01;;;;;;;9.85;8.13;;;14.70;99.90;;;;;;5012350;28;21907;-45
2022/09/09 05:40:30;;;;;;;14.80;9.93;;;14.70;99.90;;;;;;5012503;28;20050;-50
2022/09/09 05:43:00;;;;;;;11.55;9.40;;;14.70;99.90;;;;;;4995394;28;20130;-48
2022/09/09 05:45:27;;;;;;;10.40;8.82;;;14.70;99.90;;;;;;5012401;28;20057;-48
2022/09/09 05:47:54;;;;;;;11.98;9.43;;;14.70;99.90;;;;;;4993065;28;20077;-47
2022/09/09 05:50:21;;;;;;;16.73;10.50;;;14.70;99.90;;;;;;4993633;28;20082;-45
2022/09/09 05:52:49;;;;;;;12.98;9.23;;;14.70;99.90;;;;;;4995446;28;20500;-46
2022/09/09 05:55:17;;;;;;;14.98;9.20;;;14.70;99.90;;;;;;4968745;23;20058;-47
2022/09/09 05:57:51;;;;;;;11.75;9.38;;;14.70;99.90;;;;;;5008280;28;20077;-49
2022/09/09 06:00:19;;;;;;;11.15;8.63;;;14.80;99.90;;;;;;5004733;28;20049;-47
2022/09/09 06:02:52;;;;;;;13.25;9.60;;;14.80;99.90;;;;;;5009183;28;20054;-49
2022/09/09 06:05:18;;;;;;;13.85;9.32;;;14.80;99.90;;;;;;5012453;28;20052;-49
2022/09/09 06:07:45;;;;;;;13.85;8.80;;;14.90;99.90;;;;;;5009545;28;20506;-44
2022/09/09 06:10:13;;;;;;;13.77;9.57;;;14.90;99.90;;;;;;5012007;28;20054;-42
2022/09/09 06:12:40;;;;;;;11.93;8.55;;;14.90;99.90;;;;;;5010523;28;20050;-52
2022/09/09 06:15:09;;;;;;;13.98;9.73;;;14.90;99.90;;;;;;5011554;28;20058;-48
2022/09/09 06:17:36;;;;;;;12.35;9.23;;;14.90;99.90;;;;;;4996269;28;20061;-49
2022/09/09 06:20:03;;;;;;;12.88;8.68;;;14.90;99.90;;;;;;5009009;28;20142;-47
2022/09/09 06:22:30;;;;;;;12.38;9.73;;;14.90;99.90;;;;;;5009400;28;20395;-44
2022/09/09 06:24:57;;;;;;;13.80;9.23;;;14.90;99.90;;;;;;5001547;28;20050;-49
2022/09/09 06:27:24;;;;;;;11.20;8.45;;;15.00;99.90;;;;;;5019002;28;20128;-44
2022/09/09 06:29:50;;;;;;;12.88;9.00;;;15.00;99.90;;;;;;5011648;28;20057;-49
2022/09/09 06:32:18;;;;;;;13.98;8.75;;;15.00;99.90;;;;;;5008779;28;20049;-51
2022/09/09 06:34:46;;;;;;;10.23;8.00;;;15.00;99.90;;;;;;5009814;28;20132;-44
2022/09/09 06:37:13;;;;;;;13.13;8.57;;;15.00;99.90;;;;;;5009285;28;20462;-52
2022/09/09 06:39:41;;;;;;;11.55;8.73;;;15.00;99.90;;;;;;5009898;28;20506;-48
2022/09/09 06:42:08;;;;;;;17.38;9.05;;;15.10;99.90;;;;;;5011086;28;20050;-44
2022/09/09 06:44:36;;;;;;;12.10;8.68;;;15.00;99.90;;;;;;5009235;28;20056;-51
2022/09/09 06:47:03;;;;;;;11.95;8.77;;;15.10;99.90;;;;;;4999834;28;20050;-51
2022/09/09 06:49:31;;;;;;;14.15;8.38;;;15.10;99.90;;;;;;5007557;28;20057;-44
2022/09/09 06:51:57;;;;;;;11.63;8.85;;;15.10;99.90;;;;;;5001291;28;20141;-48
2022/09/09 06:54:25;;;;;;;10.13;8.35;;;15.10;99.90;;;;;;5003550;28;21270;-47
2022/09/09 06:56:52;;;;;;;13.57;9.05;;;15.20;99.90;;;;;;5009367;28;20499;-50
2022/09/09 06:59:18;;;;;;;12.60;8.07;;;15.20;99.90;;;;;;5002857;28;20081;-48
2022/09/09 07:01:46;;;;;;;14.55;8.50;;;15.20;99.90;;;;;;5001085;28;20109;-43
2022/09/09 07:04:13;;;;;;;15.13;8.73;;;15.30;99.90;;;;;;5006369;28;20046;-40
2022/09/09 07:06:43;;;;;;;14.00;8.93;;;15.40;99.90;;;;;;5010463;28;20046;-43
2022/09/09 07:09:10;;;;;;;12.80;8.23;;;15.50;99.90;;;;;;5005194;28;20056;-50
2022/09/09 07:11:39;;;;;;;10.85;8.10;;;15.50;99.90;;;;;;5010865;28;20050;-47
2022/09/09 07:14:05;;;;;;;9.52;7.93;;;15.60;99.90;;;;;;5010496;28;20049;-49
2022/09/09 07:16:33;;;;;;;10.68;7.82;;;15.70;99.90;;;;;;5006617;28;20505;-45
2022/09/09 07:19:00;;;;;;;10.27;7.70;;;15.70;99.90;;;;;;5001543;28;20108;-48
2022/09/09 07:21:27;;;;;;;11.30;7.35;;;15.80;99.90;;;;;;4996817;28;20061;-49
2022/09/09 07:23:55;;;;;;;10.98;8.25;;;15.90;99.90;;;;;;5008768;28;20145;-48
2022/09/09 07:26:23;;;;;;;9.80;7.45;;;16.00;99.90;;;;;;5008511;28;20146;-51
2022/09/09 07:28:50;;;;;;;9.98;7.30;;;16.10;99.90;;;;;;5007501;28;20528;-43
2022/09/09 07:31:18;;;;;;;13.35;7.80;;;16.10;99.90;;;;;;5008775;28;20049;-44
2022/09/09 07:33:46;;;;;;;10.57;7.10;;;16.20;99.90;;;;;;5009446;28;20053;-49
2022/09/09 07:36:14;;;;;;;11.20;7.63;;;16.30;99.90;;;;;;5009761;28;20073;-48
2022/09/09 07:38:43;;;;;;;11.75;6.90;;;16.40;99.90;;;;;;5008742;28;20064;-46
2022/09/09 07:41:12;;;;;;;13.00;7.18;;;16.50;99.90;;;;;;5006490;28;20069;-44
2022/09/09 07:43:39;;;;;;;11.15;6.65;;;16.70;99.90;;;;;;5008680;28;20081;-47
2022/09/09 07:46:06;;;;;;;10.43;6.22;;;16.80;99.90;;;;;;5010111;28;20128;-45
2022/09/09 07:48:33;;;;;;;11.48;6.47;;;16.90;99.90;;;;;;5007865;28;20049;-41
2022/09/09 07:51:06;;;;;;;9.50;6.25;;;17.10;99.90;;;;;;5010028;28;20064;-49
2022/09/09 07:53:33;;;;;;;8.95;6.00;;;17.20;99.90;;;;;;5008946;28;20482;-43
2022/09/09 07:56:04;;;;;;;13.57;6.28;;;17.30;99.90;;;;;;5008347;28;20584;-43
2022/09/09 07:58:32;;;;;;;13.95;6.60;;;17.40;99.90;;;;;;5009693;28;20045;-49
2022/09/09 08:00:59;;;;;;;14.50;6.78;;;17.50;99.90;;;;;;5011067;28;20881;-49
2022/09/09 08:03:25;;;;;;;13.85;6.57;;;17.60;99.90;;;;;;5009944;28;20042;-46
2022/09/09 08:05:52;;;;;;;13.85;6.68;;;17.60;99.90;;;;;;5009885;28;20046;-43
2022/09/09 08:08:19;;;;;;;14.65;6.00;;;17.70;99.90;;;;;;5008517;28;20070;-43
2022/09/09 08:10:46;;;;;;;11.05;5.90;;;17.80;99.90;;;;;;5009884;28;20053;-44
2022/09/09 08:13:13;;;;;;;16.60;6.95;;;17.80;99.90;;;;;;5009454;28;20077;-45
2022/09/09 08:15:42;;;;;;;10.77;5.68;;;17.80;99.90;;;;;;5009453;28;20548;-45
2022/09/09 08:18:08;;;;;;;13.00;6.47;;;17.80;99.90;;;;;;5010373;28;20125;-43
2022/09/09 08:20:37;;;;;;;11.45;7.25;;;17.80;99.90;;;;;;5010101;28;20050;-49
2022/09/09 08:23:04;;;;;;;12.07;6.43;;;17.80;99.90;;;;;;5009637;28;20053;-45
2022/09/09 08:25:31;;;;;;;13.55;6.20;;;17.80;99.90;;;;;;5009936;28;20054;-45
2022/09/09 08:27:58;;;;;;;12.23;6.25;;;17.80;99.90;;;;;;5010037;28;20077;-47
2022/09/09 08:30:25;;;;;;;12.65;6.05;;;17.80;99.90;;;;;;5009812;28;20675;-45
2022/09/09 08:32:53;;;;;;;11.13;6.13;;;17.70;99.90;;;;;;5009859;28;20054;-45
2022/09/09 08:35:20;;;;;;;10.63;5.93;;;17.70;99.90;;;;;;5009193;28;20054;-46
2022/09/09 08:37:47;;;;;;;12.48;6.05;;;17.70;99.90;;;;;;5010108;28;20497;-48
2022/09/09 08:40:18;;;;;;;12.88;5.78;;;17.80;99.90;;;;;;5004673;28;20062;-47
2022/09/09 08:42:46;;;;;;;;;;;17.90;99.90;;;;;;5008656;28;20097;-45
2022/09/09 08:45:20;;;;;;;10.43;5.85;;;17.90;99.90;;;;;;5011362;28;19933;-42
2022/09/09 08:47:54;;;;;;;9.48;5.95;;;17.90;99.90;;;;;;5014054;28;20112;-43
2022/09/09 08:50:24;;;;;;;12.57;5.03;;;18.00;99.90;;;;;;5012218;28;20080;-48
2022/09/09 08:52:54;;;;;;;15.25;5.40;;;18.10;99.90;;;;;;5013828;28;20081;-47
2022/09/09 08:55:25;;;;;;;14.20;5.30;;;18.20;99.90;;;;;;5001034;28;20046;-48
2022/09/09 08:57:53;;;;;;;12.63;4.47;;;18.10;99.90;;;;;;5014131;28;20477;-46
2022/09/09 09:00:20;;;;;;;11.68;4.97;;;18.20;99.90;;;;;;5011559;28;20056;-45
2022/09/09 09:02:50;;;;;;;14.02;4.70;;;18.20;99.90;;;;;;5014091;28;20549;-49
2022/09/09 09:05:23;;;;;;;11.80;4.07;;;18.40;99.90;;;;;;5012194;28;20046;-44
2022/09/09 09:07:56;;;;;;;9.43;4.20;;;18.50;99.90;;;;;;5012483;28;20050;-50
2022/09/09 09:10:31;;;;;;;10.55;3.72;;;18.60;99.90;;;;;;5012321;28;20502;-49
2022/09/09 09:12:58;;;;;;;12.20;4.18;;;18.70;99.90;;;;;;5012696;28;20132;-43
2022/09/09 09:15:26;;;;;;;14.88;3.80;;;18.80;99.90;;;;;;5010854;28;20138;-47
2022/09/09 09:17:53;;;;;;;11.75;4.05;;;18.90;99.90;;;;;;5012236;28;20378;-46
2022/09/09 09:20:24;;;;;;;12.60;3.67;;;18.90;99.90;;;;;;5013246;28;20045;-44
2022/09/09 09:22:52;;;;;;;11.35;3.22;;;18.80;99.90;;;;;;5012762;28;20157;-50
2022/09/09 09:25:20;;;;;;;14.45;3.63;;;18.80;99.90;;;;;;5012777;28;20148;-48
2022/09/09 09:27:51;;;;;;;12.15;3.83;;;18.90;99.90;;;;;;5010483;28;20053;-44
2022/09/09 09:30:19;;;;;;;8.20;3.13;;;18.90;99.90;;;;;;5025724;28;20500;-49
2022/09/09 09:32:51;;;;;;;13.98;3.47;;;18.90;99.90;;;;;;5012509;28;20061;-45
2022/09/09 09:35:18;;;;;;;15.90;3.45;;;18.90;99.90;;;;;;5013415;28;20077;-47
2022/09/09 09:37:46;;;;;;;10.10;3.08;;;18.80;99.90;;;;;;5012323;28;20077;-42
2022/09/09 09:40:14;;;;;;;14.65;2.88;;;18.80;99.90;;;;;;5012421;28;20466;-49
2022/09/09 09:42:51;;;;;;;10.73;3.05;;;18.90;99.90;;;;;;5012066;28;20089;-49
2022/09/09 09:45:21;;;;;;;13.57;3.13;;;19.00;99.90;;;;;;5009688;28;20085;-44
2022/09/09 09:47:59;;;;;;;17.15;3.35;;;18.90;99.90;;;;;;5009554;28;20136;-48
2022/09/09 09:50:26;;;;;;;12.50;3.33;;;18.90;99.90;;;;;;5011672;28;20473;-48
2022/09/09 09:52:58;;;;;;;9.15;2.63;;;18.90;99.90;;;;;;5011760;28;20096;-46
2022/09/09 09:55:25;;;;;;;11.75;2.60;;;19.00;99.90;;;;;;5000502;28;20490;-47
2022/09/09 09:57:51;;;;;;;9.15;2.58;;;19.00;99.90;;;;;;5008934;28;20088;-42
2022/09/09 10:00:20;;;;;;;12.05;2.67;;;19.30;99.90;;;;;;5009476;28;20087;-44
2022/09/09 10:02:47;;;;;;;11.98;2.92;;;19.50;99.90;;;;;;5011332;28;20046;-47
2022/09/09 10:05:15;;;;;;;17.17;2.53;;;19.50;99.90;;;;;;5011054;28;20104;-47
2022/09/09 10:07:43;;;;;;;13.32;2.45;;;19.60;99.90;;;;;;5012123;28;20100;-45
2022/09/09 10:10:15;;;;;;;10.02;2.05;;;19.60;99.90;;;;;;5012131;28;20050;-46
2022/09/09 10:12:54;;;;;;;12.00;3.10;;;19.70;99.90;;;;;;4997386;28;20128;-46
2022/09/09 10:15:33;;;;;;;8.75;2.63;;;19.90;99.90;;;;;;5010552;28;20125;-49
2022/09/09 10:18:17;;;;;;;10.73;2.25;;;20.10;99.90;;;;;;5004153;28;20482;-42
2022/09/09 10:20:46;;;;;;;9.40;2.28;;;20.20;99.90;;;;;;5011329;28;20465;-49
2022/09/09 10:23:21;;;;;;;7.38;1.92;;;20.10;99.90;;;;;;5010328;28;20513;-42
2022/09/09 10:26:08;;;;;;;8.05;2.20;;;20.10;99.90;;;;;;5012039;28;20486;-44
2022/09/09 10:28:43;;;;;;;11.70;2.58;;;20.10;99.90;;;;;;5002900;28;20564;-48
2022/09/09 10:31:17;;;;;;;11.10;2.28;;;20.10;99.90;;;;;;5010291;28;20073;-45
2022/09/09 10:33:48;;;;;;;10.20;1.90;;;20.10;99.90;;;;;;4999958;28;20151;-46
2022/09/09 10:36:18;;;;;;;7.78;1.70;;;20.30;99.90;;;;;;5010848;28;20109;-46
2022/09/09 10:38:47;;;;;;;9.18;2.10;;;20.30;99.90;;;;;;5009127;28;20079;-45
2022/09/09 10:41:20;;;;;;;10.52;2.20;;;20.50;99.90;;;;;;5011358;28;20057;-44
2022/09/09 10:44:14;;;;;;;9.70;2.25;;;20.60;99.90;;;;;;5011558;28;20061;-45
2022/09/09 10:46:49;;;;;;;9.70;2.17;;;20.80;99.90;;;;;;5012391;28;20513;-47
2022/09/09 10:49:23;;;;;;;13.48;2.40;;;20.90;99.30;;;;;;5008459;28;20073;-46
2022/09/09 10:51:59;;;;;;;8.35;1.90;;;20.80;99.00;;;;;;5010038;28;20557;-40
2022/09/09 10:54:32;;;;;;;5.95;2.08;;;20.70;99.20;;;;;;5005837;28;20066;-43
2022/09/09 10:57:06;;;;;;;8.35;1.77;;;20.70;99.50;;;;;;5009447;28;20046;-44
2022/09/09 10:59:36;;;;;;;9.57;2.08;;;20.70;99.40;;;;;;5012749;28;20834;-45
2022/09/09 11:02:06;;;;;;;10.63;2.35;;;20.70;99.30;;;;;;5009753;28;20046;-44
2022/09/09 11:04:35;;;;;;;8.82;1.67;;;20.70;99.50;;;;;;5011165;28;20100;-45
2022/09/09 11:07:06;;;;;;;11.95;2.20;;;20.70;99.70;;;;;;5011077;28;20049;-44
2022/09/09 11:09:36;;;;;;;10.02;2.13;;;20.60;99.20;;;;;;5010900;28;20096;-45
2022/09/09 11:12:05;;;;;;;8.00;2.10;;;20.40;99.00;;;;;;5013021;28;20061;-47
2022/09/09 11:14:33;;;;;;;14.00;2.17;;;20.40;99.10;;;;;;5009930;28;20112;-44
2022/09/09 11:17:01;;;;;;;6.82;1.60;;;20.40;99.10;;;;;;5010623;28;20058;-44
2022/09/09 11:19:30;;;;;;;9.65;1.98;;;20.40;99.30;;;;;;5010823;28;20095;-42
2022/09/09 11:21:57;;;;;;;10.65;1.85;;;20.40;98.90;;;;;;5011062;28;20050;-47
2022/09/09 11:24:26;;;;;;;10.30;1.95;;;20.50;98.80;;;;;;5011838;28;20045;-45
2022/09/09 11:26:55;;;;;;;9.70;2.10;;;20.50;98.50;;;;;;5011387;28;20077;-44
2022/09/09 11:29:48;;;;;;;9.25;2.10;;;20.50;98.40;;;;;;5010217;28;20053;-44
2022/09/09 11:32:26;;;;;;;11.77;2.10;;;20.50;98.40;;;;;;5009934;28;20056;-45
2022/09/09 11:34:56;;;;;;;10.23;2.13;;;20.30;98.10;;;;;;5011986;28;20120;-46
2022/09/09 11:37:50;;;;;;;8.90;2.15;;;20.30;98.50;;;;;;5010789;28;20057;-47
2022/09/09 11:40:20;;;;;;;10.63;2.80;;;20.30;98.40;;;;;;5011833;28;20547;-43
2022/09/09 11:42:49;;;;;;;8.18;1.75;;;20.20;99.00;;;;;;5011437;28;20457;-43
2022/09/09 11:45:27;;;;;;;10.23;1.98;;;20.10;99.20;;;;;;5008956;28;20053;-42
2022/09/09 11:47:55;;;;;;;5.07;1.90;;;20.10;99.40;;;;;;5010106;28;20057;-43
2022/09/09 11:50:40;;;;;;;8.88;2.22;;;20.00;99.90;;;;;;5011364;28;20410;-42
2022/09/09 11:53:24;;;;;;;10.90;2.03;;;20.00;99.90;;;;;;5010869;28;20124;-47
2022/09/09 11:56:07;;;;;;;6.72;1.98;;;20.00;99.90;;;;;;5009639;28;20093;-42
2022/09/09 11:58:40;;;;;;;12.77;1.98;;;20.10;99.50;;;;;;5009937;28;20395;-42
2022/09/09 12:01:30;;;;;;;7.40;2.00;;;20.20;99.90;;;;;;5011669;28;20369;-44
2022/09/09 12:04:21;;;;;;;10.68;2.53;;;20.40;99.90;;;;;;5012101;28;20068;-43
2022/09/09 12:06:51;;;;;;;8.02;2.40;;;20.50;99.90;;;;;;5001145;28;20050;-43
2022/09/09 12:09:25;;;;;;;8.95;2.20;;;20.70;99.10;;;;;;5011288;28;20049;-39
2022/09/09 12:11:52;;;;;;;11.90;2.13;;;20.70;98.00;;;;;;5011469;28;20413;-43
2022/09/09 12:14:24;;;;;;;9.95;2.10;;;20.70;98.10;;;;;;5012554;28;20049;-42
2022/09/09 12:16:52;;;;;;;7.40;2.13;;;20.90;98.40;;;;;;5011885;28;20561;-44
2022/09/09 12:19:22;;;;;;;7.82;2.08;;;21.10;97.70;;;;;;5010431;28;20042;-43
2022/09/09 12:21:55;;;;;;;5.70;1.70;;;21.20;97.50;;;;;;5014658;28;20128;-43
2022/09/09 12:24:26;;;;;;;6.13;1.92;;;21.20;97.80;;;;;;4996692;28;20046;-42
2022/09/09 12:26:55;;;;;;;6.50;1.73;;;21.20;97.40;;;;;;5011839;28;20046;-42
2022/09/09 12:29:26;;;;;;;8.13;2.30;;;21.10;97.10;;;;;;5015505;28;20096;-43
2022/09/09 12:31:57;;;;;;;8.90;2.05;;;21.00;97.00;;;;;;5012423;28;20084;-43
2022/09/09 12:34:31;;;;;;;11.18;2.30;;;21.00;97.30;;;;;;5013925;28;20057;-46
2022/09/09 12:36:59;;;;;;;9.75;1.98;;;20.90;96.90;;;;;;5012767;28;20049;-42
2022/09/09 12:39:30;;;;;;;10.88;2.13;;;20.90;96.80;;;;;;5015249;28;20060;-44
2022/09/09 12:41:57;;;;;;;10.15;2.13;;;21.00;97.10;;;;;;5014090;28;20081;-41
2022/09/09 12:44:24;;;;;;;5.22;1.77;;;21.30;97.20;;;;;;5014151;28;20045;-45
2022/09/09 12:46:52;;;;;;;6.95;1.98;;;21.50;96.30;;;;;;5015309;28;20434;-44
2022/09/09 12:49:27;;;;;;;10.98;2.25;;;21.40;95.80;;;;;;5013626;28;20473;-47
2022/09/09 12:51:54;;;;;;;8.25;1.63;;;21.30;94.80;;;;;;5013053;28;20092;-45
2022/09/09 12:54:21;;;;;;;8.85;2.03;;;21.10;95.80;;;;;;5011827;28;20081;-43